Time;durP1;ratioP1;P1;durP2;ratioP2;P2;SDS_P1;SDS_P2;PMS_P1;PMS_P2;Temp;Humidity;BMP_temperature;BMP_pressure;BME280_temperature;BME280_humidity;BME280_pressure;Samples;Min_cycle;Max_cycle;Signal;HPM_P1;HPM_P2
2021/01/14 00:02:10;;;;;;;12.53;8.28;;;;;;;-2.28;100.00;98982.79;1801575;79;21367;-82
2021/01/14 00:05:18;;;;;;;12.00;7.35;;;;;;;-2.25;100.00;98976.34;1804325;79;21720;-82
2021/01/14 00:08:22;;;;;;;12.28;7.70;;;;;;;-2.29;100.00;98989.63;1803892;79;21854;-81
2021/01/14 00:11:29;;;;;;;11.38;7.47;;;;;;;-2.32;100.00;98993.39;1803266;79;21501;-81
2021/01/14 00:14:35;;;;;;;11.80;7.60;;;;;;;-2.27;100.00;98987.66;1801896;79;21327;-81
2021/01/14 00:17:41;;;;;;;10.58;6.85;;;;;;;-2.22;100.00;98978.25;1802289;79;21776;-81
2021/01/14 00:20:47;;;;;;;12.43;7.65;;;;;;;-2.19;100.00;98987.38;1803375;79;21173;-82
2021/01/14 00:23:53;;;;;;;12.00;7.45;;;;;;;-2.17;100.00;98993.94;1803306;79;21173;-81
2021/01/14 00:26:58;;;;;;;12.33;7.67;;;;;;;-2.15;100.00;98998.70;1802726;79;21307;-81
2021/01/14 00:30:04;;;;;;;13.88;9.03;;;;;;;-2.11;100.00;98994.80;1803275;79;21584;-81
2021/01/14 00:33:11;;;;;;;11.43;7.67;;;;;;;-2.05;100.00;98990.25;1801884;79;21161;-81
2021/01/14 00:36:30;;;;;;;12.03;8.10;;;;;;;-1.96;100.00;98993.50;1801878;79;21350;-81
2021/01/14 00:39:24;;;;;;;14.07;8.65;;;;;;;-1.88;100.00;98992.38;1803253;79;21824;-81
2021/01/14 00:42:29;;;;;;;11.85;7.92;;;;;;;-1.81;100.00;98992.20;1802848;79;21911;-81
2021/01/14 00:45:36;;;;;;;13.13;8.10;;;;;;;-1.71;100.00;98986.90;1803217;79;21891;-82
2021/01/14 00:48:42;;;;;;;12.90;8.00;;;;;;;-1.69;100.00;98982.27;1804036;79;21209;-81
2021/01/14 00:51:48;;;;;;;15.00;9.05;;;;;;;-1.66;100.00;98982.48;1801872;79;21149;-81
2021/01/14 00:54:54;;;;;;;13.93;8.53;;;;;;;-1.64;100.00;98978.70;1803303;79;21173;-81
2021/01/14 00:58:01;;;;;;;15.83;9.53;;;;;;;-1.54;100.00;98989.49;1802403;79;21320;-80
2021/01/14 01:01:07;;;;;;;13.85;9.00;;;;;;;-1.46;100.00;98999.05;1803293;79;21799;-81
2021/01/14 01:04:13;;;;;;;15.32;9.05;;;;;;;-1.42;100.00;98999.64;1801576;79;21720;-82
2021/01/14 01:07:18;;;;;;;13.85;9.68;;;;;;;-1.38;100.00;98995.71;1804336;79;21217;-81
2021/01/14 01:10:23;;;;;;;17.77;10.20;;;;;;;-1.39;100.00;98989.50;1804328;79;21645;-81
2021/01/14 01:13:29;;;;;;;13.08;8.73;;;;;;;-1.36;100.00;98997.79;1804321;79;21216;-81
2021/01/14 01:16:35;;;;;;;15.03;9.45;;;;;;;-1.34;100.00;99005.20;1776034;79;21256;-81
2021/01/14 01:19:40;;;;;;;14.93;9.85;;;;;;;-1.35;100.00;99012.40;1804343;79;21293;-81
2021/01/14 01:22:44;;;;;;;16.70;11.40;;;;;;;-1.32;100.00;99011.27;1804172;79;21265;-82
2021/01/14 01:25:50;;;;;;;15.13;10.15;;;;;;;-1.27;100.00;99035.02;1804452;79;21185;-82
2021/01/14 01:28:55;;;;;;;13.53;9.85;;;;;;;-1.26;100.00;99034.91;1803467;79;21280;-81
2021/01/14 01:32:01;;;;;;;18.45;11.70;;;;;;;-1.31;100.00;99042.50;1804337;79;21256;-81
2021/01/14 01:35:06;;;;;;;21.07;12.30;;;;;;;-1.42;100.00;99049.26;1804234;79;21295;-81
2021/01/14 01:38:12;;;;;;;16.23;11.10;;;;;;;-1.46;100.00;99051.84;1804274;79;22221;-81
2021/01/14 01:41:17;;;;;;;17.50;12.60;;;;;;;-1.48;100.00;99057.34;1804275;79;21142;-81
2021/01/14 01:44:24;;;;;;;19.55;13.10;;;;;;;-1.46;100.00;99055.37;1804079;79;21292;-81
2021/01/14 01:47:39;;;;;;;19.32;11.73;;;;;;;-1.43;100.00;99052.44;1804306;79;21248;-81
2021/01/14 01:50:37;;;;;;;41.10;20.45;;;;;;;-1.41;100.00;99058.54;1804303;79;21233;-82
2021/01/14 01:53:41;;;;;;;27.55;13.58;;;;;;;-1.50;100.00;99067.86;1804303;79;21303;-81
2021/01/14 01:56:45;;;;;;;25.08;14.78;;;;;;;-1.67;100.00;99062.56;1781958;79;21673;-81
2021/01/14 01:59:51;;;;;;;20.23;12.25;;;;;;;-1.81;100.00;99064.57;1803192;79;21185;-81
2021/01/14 02:02:58;;;;;;;23.55;13.93;;;;;;;-1.87;100.00;99066.44;1804190;79;21192;-80
2021/01/14 02:06:02;;;;;;;28.70;17.17;;;;;;;-1.89;100.00;99064.84;1784990;79;21315;-81
2021/01/14 02:09:11;;;;;;;34.65;18.90;;;;;;;-1.86;100.00;99064.11;1809360;79;21280;-82
2021/01/14 02:12:16;;;;;;;29.20;18.87;;;;;;;-1.82;100.00;99062.87;1809379;79;21141;-80
2021/01/14 02:15:22;;;;;;;28.23;18.17;;;;;;;-1.78;100.00;99056.78;1809144;79;21279;-80
2021/01/14 02:18:28;;;;;;;40.28;24.43;;;;;;;-1.70;100.00;99057.45;1809306;79;21204;-81
2021/01/14 02:21:33;;;;;;;42.75;24.90;;;;;;;-1.68;100.00;99056.36;1809403;79;21177;-81
2021/01/14 02:24:50;;;;;;;39.67;22.32;;;;;;;-1.63;100.00;99058.16;1809350;79;21323;-81
2021/01/14 02:27:56;;;;;;;36.00;21.70;;;;;;;-1.63;100.00;99054.14;1809491;79;21296;-81
2021/01/14 02:31:00;;;;;;;32.42;19.48;;;;;;;-1.61;100.00;99057.52;1809385;79;21121;-80
2021/01/14 02:34:06;;;;;;;32.55;19.92;;;;;;;-1.59;100.00;99063.63;1809371;79;21141;-80
2021/01/14 02:37:12;;;;;;;33.20;21.97;;;;;;;-1.64;100.00;99069.88;1809440;79;21248;-81
2021/01/14 02:40:18;;;;;;;40.78;21.20;;;;;;;-1.66;100.00;99064.27;1809381;79;21248;-80
2021/01/14 02:43:24;;;;;;;36.58;21.93;;;;;;;-1.67;100.00;99056.72;1809349;79;21212;-82
2021/01/14 02:46:29;;;;;;;34.63;19.17;;;;;;;-1.75;100.00;99057.84;1809373;79;21244;-81
2021/01/14 02:49:35;;;;;;;36.75;21.80;;;;;;;-1.86;100.00;99058.75;1809365;79;21283;-80
2021/01/14 02:52:40;;;;;;;30.52;19.25;;;;;;;-2.00;100.00;99059.54;1809455;79;21252;-80
2021/01/14 02:55:45;;;;;;;42.62;23.55;;;;;;;-2.09;100.00;99047.75;1809460;79;21145;-80
2021/01/14 02:58:52;;;;;;;39.65;23.55;;;;;;;-2.18;100.00;99050.70;1749162;79;21153;-81
2021/01/14 03:01:58;;;;;;;34.08;19.92;;;;;;;-2.21;100.00;99054.98;1809492;79;21264;-80
2021/01/14 03:05:03;;;;;;;39.10;23.50;;;;;;;-2.17;100.00;99062.26;1807076;79;21252;-80
2021/01/14 03:08:10;;;;;;;46.48;26.37;;;;;;;-2.17;100.00;99055.56;1798752;80;21677;-80
2021/01/14 03:11:16;;;;;;;48.28;27.48;;;;;;;-2.21;100.00;99054.11;1798729;80;21146;-80
2021/01/14 03:14:21;;;;;;;55.45;28.65;;;;;;;-2.21;100.00;99050.09;1798691;80;21184;-80
2021/01/14 03:17:27;;;;;;;48.30;27.22;;;;;;;-2.15;100.00;99065.68;1798720;80;21150;-81
2021/01/14 03:20:33;;;;;;;52.43;29.98;;;;;;;-2.08;100.00;99069.05;1798820;80;21138;-80
2021/01/14 03:23:39;;;;;;;54.40;29.02;;;;;;;-2.04;100.00;99068.31;1798728;80;21146;-80
2021/01/14 03:26:45;;;;;;;58.08;30.52;;;;;;;-2.04;100.00;99066.97;1798748;80;21256;-80
2021/01/14 03:29:50;;;;;;;54.60;30.88;;;;;;;-2.14;100.00;99066.88;1798604;80;21288;-80
2021/01/14 03:32:56;;;;;;;49.98;27.73;;;;;;;-2.18;100.00;99061.41;1798719;80;21143;-80
2021/01/14 03:36:04;;;;;;;52.70;30.45;;;;;;;-2.19;100.00;99065.08;1798627;80;21192;-80
2021/01/14 03:39:09;;;;;;;54.67;31.65;;;;;;;-2.25;100.00;99064.25;1798705;80;21188;-80
2021/01/14 03:42:14;;;;;;;57.33;32.53;;;;;;;-2.29;100.00;99065.96;1798039;80;21217;-80
2021/01/14 03:45:19;;;;;;;48.87;28.15;;;;;;;-2.37;100.00;99060.72;1797363;80;21256;-80
2021/01/14 03:48:25;;;;;;;59.95;33.13;;;;;;;-2.43;100.00;99070.61;1797687;80;21804;-80
2021/01/14 03:51:25;;;;;;;57.17;29.67;;;;;;;-2.48;100.00;99070.13;1797638;80;21755;-80
2021/01/14 03:54:30;;;;;;;63.33;32.08;;;;;;;-2.45;100.00;99069.86;1797762;80;21185;-81
2021/01/14 03:57:36;;;;;;;62.50;33.88;;;;;;;-2.44;100.00;99063.55;1797746;80;21816;-80
2021/01/14 04:00:43;;;;;;;64.32;34.33;;;;;;;-2.44;100.00;99060.88;1796702;80;21387;-81
2021/01/14 04:03:50;;;;;;;55.48;30.25;;;;;;;-2.44;100.00;99064.05;1797611;80;21732;-80
2021/01/14 04:06:55;;;;;;;71.67;34.15;;;;;;;-2.47;100.00;99074.50;1797538;79;21284;-79
2021/01/14 04:10:01;;;;;;;72.42;35.73;;;;;;;-2.49;100.00;99073.79;1798615;80;21289;-80
2021/01/14 04:13:06;;;;;;;66.42;34.40;;;;;;;-2.49;100.00;99075.12;1798658;80;21185;-80
2021/01/14 04:16:10;;;;;;;67.92;34.92;;;;;;;-2.46;100.00;99087.41;1798541;80;21185;-80
2021/01/14 04:19:15;;;;;;;65.85;35.60;;;;;;;-2.42;100.00;99091.54;1798650;80;21235;-80
2021/01/14 04:22:24;;;;;;;68.90;33.98;;;;;;;-2.33;100.00;99100.17;1798562;80;21245;-80
2021/01/14 04:25:32;;;;;;;59.85;34.80;;;;;;;-2.23;100.00;99090.90;1798727;80;21180;-80
2021/01/14 04:28:38;;;;;;;63.02;34.95;;;;;;;-2.10;100.00;99092.94;1798698;80;21149;-80
2021/01/14 04:31:43;;;;;;;66.55;34.58;;;;;;;-2.05;100.00;99094.75;1797795;80;21364;-80
2021/01/14 04:34:49;;;;;;;63.30;35.88;;;;;;;-2.01;100.00;99088.66;1798601;80;21760;-80
2021/01/14 04:37:55;;;;;;;66.97;34.85;;;;;;;-1.99;100.00;99075.97;1783189;80;21784;-80
2021/01/14 04:41:11;;;;;;;61.35;32.40;;;;;;;-1.99;100.00;99075.97;1798659;80;21149;-80
2021/01/14 04:44:17;;;;;;;61.68;33.00;;;;;;;-2.00;100.00;99073.78;1794060;79;21232;-80
2021/01/14 04:47:22;;;;;;;66.10;35.28;;;;;;;-1.98;100.00;99083.03;1730139;82;21821;-79
2021/01/14 04:50:28;;;;;;;59.80;33.85;;;;;;;-2.00;100.00;99093.88;1794910;79;21173;-80
2021/01/14 04:53:34;;;;;;;60.20;32.10;;;;;;;-2.00;100.00;99098.39;1791875;80;21237;-80
2021/01/14 04:56:42;;;;;;;59.15;32.58;;;;;;;-2.02;100.00;99098.53;1721587;83;21142;-79
2021/01/14 04:59:47;;;;;;;65.45;35.30;;;;;;;-2.08;100.00;99098.52;1721589;83;21835;-79
2021/01/14 05:03:06;;;;;;;62.35;33.95;;;;;;;-2.14;100.00;99100.86;1791701;80;21847;-80
2021/01/14 05:06:11;;;;;;;64.70;33.73;;;;;;;-2.17;100.00;99105.12;1721443;83;21261;-80
2021/01/14 05:09:16;;;;;;;61.02;32.42;;;;;;;-2.16;100.00;99103.68;1794411;80;21768;-80
2021/01/14 05:12:22;;;;;;;56.30;31.90;;;;;;;-2.19;100.00;99099.05;1726922;83;21193;-79
2021/01/14 05:15:27;;;;;;;71.95;35.40;;;;;;;-2.26;100.00;99100.52;1688973;83;21841;-80
2021/01/14 05:18:34;;;;;;;64.67;33.05;;;;;;;-2.38;100.00;99101.03;1726780;83;21352;-80
2021/01/14 05:21:40;;;;;;;70.95;38.00;;;;;;;-2.50;100.00;99103.34;1726929;83;21312;-79
2021/01/14 05:24:45;;;;;;;75.03;38.05;;;;;;;-2.57;100.00;99095.81;1737761;82;21165;-80
2021/01/14 05:27:50;;;;;;;78.25;41.00;;;;;;;-2.59;100.00;99099.58;1735708;82;21178;-80
2021/01/14 05:30:56;;;;;;;83.85;39.98;;;;;;;-2.61;100.00;99112.24;1755762;81;21283;-79
2021/01/14 05:34:07;;;;;;;79.67;40.85;;;;;;;-2.66;100.00;99107.26;1737231;82;21180;-79
2021/01/14 05:37:13;;;;;;;80.28;39.03;;;;;;;-2.72;100.00;99113.11;1714755;83;21278;-79
2021/01/14 05:40:21;;;;;;;64.77;37.00;;;;;;;-2.75;100.00;99113.83;1742295;82;21304;-80
2021/01/14 05:43:28;;;;;;;60.83;34.90;;;;;;;-2.73;100.00;99117.22;1741921;82;21317;-80
2021/01/14 05:46:34;;;;;;;62.25;34.95;;;;;;;-2.71;100.00;99128.67;1741794;82;21365;-80
2021/01/14 05:49:39;;;;;;;61.65;37.30;;;;;;;-2.86;100.00;99132.92;1742384;82;21301;-80
2021/01/14 05:52:45;;;;;;;76.12;39.75;;;;;;;-3.00;100.00;99131.81;1740794;82;21226;-80
2021/01/14 05:55:55;;;;;;;58.60;32.70;;;;;;;-3.04;100.00;99140.20;1741619;82;21222;-81
2021/01/14 05:59:00;;;;;;;64.62;34.18;;;;;;;-2.97;100.00;99137.39;1741833;82;21308;-80
2021/01/14 06:02:13;;;;;;;56.55;32.40;;;;;;;-2.92;100.00;99144.09;1741204;82;21373;-81
2021/01/14 06:05:37;;;;;;;71.65;37.53;;;;;;;-2.89;100.00;99143.86;1744470;82;21302;-79
2021/01/14 06:08:48;;;;;;;73.50;40.88;;;;;;;-2.90;100.00;99139.48;1732098;81;21242;-79
2021/01/14 06:11:54;;;;;;;57.65;31.55;;;;;;;-2.89;100.00;99143.86;1750594;81;21604;-80
2021/01/14 06:15:01;;;;;;;77.75;39.80;;;;;;;-2.89;100.00;99149.21;1731513;82;21855;-80
2021/01/14 06:18:12;;;;;;;57.88;33.78;;;;;;;-2.88;100.00;99150.91;1763535;80;21171;-85
2021/01/14 06:21:18;;;;;;;64.65;36.08;;;;;;;-2.80;100.00;99158.35;1736797;82;21183;-81
2021/01/14 06:24:44;;;;;;;76.57;39.92;;;;;;;-2.71;100.00;99154.11;1731611;82;21197;-80
2021/01/14 06:28:03;;;;;;;59.05;33.85;;;;;;;-2.66;100.00;99150.09;1726676;82;21955;-80
2021/01/14 06:31:13;;;;;;;60.50;33.48;;;;;;;-2.61;100.00;99147.05;1735624;82;21317;-81
2021/01/14 06:34:21;;;;;;;61.50;33.33;;;;;;;-2.56;100.00;99142.18;1733552;82;21242;-81
2021/01/14 06:37:27;;;;;;;51.00;27.80;;;;;;;-2.56;100.00;99150.21;1736152;80;21306;-81
2021/01/14 06:40:36;;;;;;;75.78;38.58;;;;;;;-2.62;100.00;99153.38;1738899;80;21364;-81
2021/01/14 06:43:42;;;;;;;86.28;45.00;;;;;;;-2.67;100.00;99154.23;1726182;82;21360;-80
2021/01/14 06:46:47;;;;;;;87.05;43.10;;;;;;;-2.67;100.00;99154.23;1727424;80;21332;-79
2021/01/14 06:49:55;;;;;;;68.47;37.38;;;;;;;-2.61;100.00;99161.77;1726234;81;21316;-80
2021/01/14 06:53:19;;;;;;;80.45;40.17;;;;;;;-2.52;100.00;99162.39;1755594;80;21332;-79
2021/01/14 06:56:27;;;;;;;70.75;37.28;;;;;;;-2.49;100.00;99170.19;1730555;82;21280;-79
2021/01/14 06:59:33;;;;;;;70.97;39.85;;;;;;;-2.40;100.00;99181.97;1728743;82;21329;-80
2021/01/14 07:02:49;;;;;;;71.40;37.28;;;;;;;-2.40;100.00;99185.53;1756394;81;21307;-79
2021/01/14 07:06:06;;;;;;;75.20;39.83;;;;;;;-2.47;100.00;99182.11;1760814;80;21274;-80
2021/01/14 07:09:21;;;;;;;84.90;42.00;;;;;;;-2.45;100.00;99175.64;1762472;79;21621;-79
2021/01/14 07:12:27;;;;;;;84.87;44.00;;;;;;;-2.41;100.00;99178.94;1736752;81;21139;-79
2021/01/14 07:15:33;;;;;;;96.63;43.13;;;;;;;-2.28;100.00;99174.31;1736662;82;21828;-79
2021/01/14 07:18:40;;;;;;;88.45;45.98;;;;;;;-2.15;100.00;99180.39;1712732;82;21321;-80
2021/01/14 07:21:52;;;;;;;81.08;39.85;;;;;;;-2.03;100.00;99187.06;1715910;83;21183;-80
2021/01/14 07:24:57;;;;;;;76.67;41.85;;;;;;;-1.92;100.00;99187.07;1696378;82;21217;-79
2021/01/14 07:28:05;;;;;;;87.88;43.02;;;;;;;-1.81;100.00;99191.91;1709750;81;21192;-79
2021/01/14 07:31:34;;;;;;;70.65;39.15;;;;;;;-1.70;100.00;99192.84;1745329;80;21287;-80
2021/01/14 07:34:45;;;;;;;76.47;40.45;;;;;;;-1.52;100.00;99198.04;1741561;80;21331;-77
2021/01/14 07:38:00;;;;;;;79.03;42.60;;;;;;;-1.35;100.00;99209.58;1747454;80;21294;-77
2021/01/14 07:41:07;;;;;;;75.62;40.85;;;;;;;-1.20;100.00;99211.47;1739305;81;21287;-76
2021/01/14 07:44:13;;;;;;;73.57;37.13;;;;;;;-1.03;100.00;99223.48;1742018;80;21879;-76
2021/01/14 07:47:19;;;;;;;69.80;40.17;;;;;;;-0.93;100.00;99219.52;1680571;82;21277;-77
2021/01/14 07:50:36;;;;;;;60.35;33.67;;;;;;;-0.85;100.00;99214.33;1724087;82;22696;-77
2021/01/14 07:53:42;;;;;;;61.45;36.70;;;;;;;-0.75;100.00;99218.42;1727908;82;21167;-76
2021/01/14 07:56:56;;;;;;;65.90;34.60;;;;;;;-0.66;100.00;99223.01;1698527;82;21303;-76
2021/01/14 08:00:07;;;;;;;72.35;40.95;;;;;;;-0.57;100.00;99227.59;1733029;82;21199;-76
2021/01/14 08:03:23;;;;;;;69.97;38.33;;;;;;;-0.57;100.00;99230.28;1732930;82;21287;-76
2021/01/14 08:06:45;;;;;;;78.78;38.85;;;;;;;-0.60;100.00;99230.06;1738445;82;21316;-76
2021/01/14 08:09:49;;;;;;;85.10;46.75;;;;;;;-0.65;100.00;99235.48;1718799;83;21324;-76
2021/01/14 08:12:56;;;;;;;65.78;37.23;;;;;;;-0.58;100.00;99232.61;1735061;81;21357;-77
2021/01/14 08:16:02;;;;;;;86.35;44.13;;;;;;;-0.42;100.00;99224.10;1733838;81;22377;-77
2021/01/14 08:19:39;;;;;;;74.67;38.88;;;;;;;-0.33;100.00;99228.19;1790560;78;21275;-78
2021/01/14 08:22:51;;;;;;;71.65;39.40;;;;;;;-0.21;100.00;99218.19;1793570;78;21287;-76
2021/01/14 08:25:56;;;;;;;65.97;39.42;;;;;;;-0.12;100.00;99219.22;1798818;78;21286;-77
2021/01/14 08:29:08;;;;;;;59.10;32.70;;;;;;;-0.03;100.00;99218.41;1728478;81;21296;-76
2021/01/14 08:32:32;;;;;;;65.50;37.63;;;;;;;-0.02;100.00;99210.69;1781352;78;21325;-77
2021/01/14 08:35:42;;;;;;;72.05;35.63;;;;;;;-0.05;100.00;99206.92;1788398;78;21240;-76
2021/01/14 08:38:48;;;;;;;59.75;33.02;;;;;;;-0.05;100.00;99209.61;1788525;78;21173;-76
2021/01/14 08:42:00;;;;;;;74.37;40.88;;;;;;;0.03;100.00;99217.00;1619337;86;21378;-79
2021/01/14 08:45:20;;;;;;;73.05;35.35;;;;;;;0.06;100.00;99216.25;1660444;84;21303;-79
2021/01/14 08:48:34;;;;;;;61.40;33.78;;;;;;;0.18;100.00;99216.98;1657459;84;21263;-79
2021/01/14 08:51:39;;;;;;;64.37;36.25;;;;;;;0.14;100.00;99217.77;1663712;84;21364;-79
2021/01/14 08:54:50;;;;;;;59.15;34.55;;;;;;;0.08;100.00;99214.26;1659852;84;22009;-79
2021/01/14 08:58:03;;;;;;;78.52;39.80;;;;;;;0.07;100.00;99209.88;1664014;84;21377;-80
2021/01/14 09:01:07;;;;;;;62.83;34.78;;;;;;;0.21;100.00;99211.34;1661356;84;21338;-80
2021/01/14 09:04:13;;;;;;;69.77;35.92;;;;;;;0.38;100.00;99209.84;1660197;84;21731;-80
2021/01/14 09:07:20;;;;;;;67.32;34.53;;;;;;;0.48;100.00;99206.66;1662740;84;21216;-80
2021/01/14 09:10:26;;;;;;;61.25;34.48;;;;;;;0.58;100.00;99205.33;1649354;84;21362;-80
2021/01/14 09:13:35;;;;;;;71.55;37.58;;;;;;;0.62;100.00;99206.76;1662014;84;21650;-80
2021/01/14 09:16:40;;;;;;;63.20;34.55;;;;;;;0.64;100.00;99206.11;1668782;84;21365;-80
2021/01/14 09:19:46;;;;;;;64.15;33.08;;;;;;;0.67;100.00;99200.45;1659144;84;21330;-80
2021/01/14 09:22:53;;;;;;;63.25;37.00;;;;;;;0.66;99.99;99197.38;1660295;84;21338;-79
2021/01/14 09:26:03;;;;;;;71.02;37.53;;;;;;;0.58;99.60;99195.41;1644950;86;21847;-80
2021/01/14 09:29:08;;;;;;;66.20;33.73;;;;;;;0.59;99.49;99193.57;1660198;86;21303;-79
2021/01/14 09:32:21;;;;;;;53.98;29.45;;;;;;;0.63;99.47;99189.11;1666462;84;21777;-80
2021/01/14 09:35:27;;;;;;;71.87;36.55;;;;;;;0.72;99.58;99182.89;1647779;85;22123;-81
2021/01/14 09:38:35;;;;;;;64.05;35.95;;;;;;;0.69;99.33;99187.20;1602349;88;21294;-80
2021/01/14 09:41:46;;;;;;;50.43;28.90;;;;;;;0.62;99.04;99186.08;1617814;86;21589;-79
2021/01/14 09:44:53;;;;;;;63.63;33.98;;;;;;;0.61;98.98;99181.69;1607527;87;21359;-80
2021/01/14 09:47:59;;;;;;;58.02;32.10;;;;;;;0.63;99.04;99186.42;1649872;85;21331;-80
2021/01/14 09:51:06;;;;;;;56.53;28.77;;;;;;;0.70;99.15;99178.63;1651373;85;21186;-80
2021/01/14 09:54:14;;;;;;;57.13;30.82;;;;;;;0.71;99.20;99171.77;1598236;87;21920;-80
2021/01/14 09:57:19;;;;;;;47.60;26.48;;;;;;;0.76;99.29;99162.78;1592833;88;21386;-80
2021/01/14 10:00:32;;;;;;;65.80;36.08;;;;;;;0.83;99.29;99154.97;1602447;87;21294;-79
2021/01/14 10:03:37;;;;;;;59.42;34.50;;;;;;;0.92;99.41;99150.57;1646554;85;21219;-80
2021/01/14 10:06:46;;;;;;;75.97;35.25;;;;;;;1.09;99.68;99151.20;1641074;85;21299;-79
2021/01/14 10:09:52;;;;;;;76.62;37.20;;;;;;;1.22;99.77;99151.75;1655000;85;21384;-80
2021/01/14 10:13:03;;;;;;;64.97;37.03;;;;;;;1.25;99.62;99150.09;1650189;85;21336;-78
2021/01/14 10:16:17;;;;;;;60.80;32.25;;;;;;;1.32;99.60;99144.11;1648149;85;21359;-78
2021/01/14 10:19:27;;;;;;;61.40;33.25;;;;;;;1.36;99.44;99145.52;1645801;85;21312;-79
2021/01/14 10:22:34;;;;;;;61.77;31.93;;;;;;;1.37;99.31;99149.44;1647214;85;21296;-79
2021/01/14 10:25:40;;;;;;;63.95;33.28;;;;;;;1.33;99.10;99153.41;1645110;85;21311;-79
2021/01/14 10:28:52;;;;;;;54.73;30.50;;;;;;;1.34;99.05;99142.98;1649359;85;22021;-79
2021/01/14 10:31:57;;;;;;;75.60;37.90;;;;;;;1.29;98.87;99146.61;1644798;87;21355;-79
2021/01/14 10:34:56;;;;;;;69.22;36.77;;;;;;;1.18;98.58;99140.91;1627609;85;21193;-79
2021/01/14 10:38:20;;;;;;;66.40;35.17;;;;;;;1.18;98.60;99138.71;1649537;85;21234;-79
2021/01/14 10:41:29;;;;;;;54.55;31.68;;;;;;;1.22;98.74;99134.23;1649021;85;21334;-79
2021/01/14 10:44:34;;;;;;;65.50;31.73;;;;;;;1.24;98.73;99131.39;1629790;86;21266;-79
2021/01/14 10:47:42;;;;;;;80.30;35.90;;;;;;;1.19;98.54;99128.28;1629239;86;21326;-79
2021/01/14 10:50:55;;;;;;;59.90;33.45;;;;;;;1.07;98.30;99125.39;1635422;86;21867;-79
2021/01/14 10:54:02;;;;;;;72.37;39.95;;;;;;;1.03;98.28;99118.09;1631488;86;21302;-79
2021/01/14 10:57:08;;;;;;;67.50;34.73;;;;;;;1.05;98.39;99118.81;1578743;89;21362;-79
2021/01/14 11:00:28;;;;;;;60.20;33.90;;;;;;;1.11;98.59;99122.77;1620697;87;21528;-78
2021/01/14 11:03:35;;;;;;;;;;;;;;;1.19;98.72;99116.16;1584679;89;21368;-78
2021/01/14 11:06:43;;;;;;;62.80;31.93;;;;;;;1.11;98.46;99109.30;1638652;86;20270;-78
2021/01/14 11:09:57;;;;;;;55.00;32.50;;;;;;;1.04;98.40;99108.20;1637772;86;21321;-78
2021/01/14 11:13:16;;;;;;;59.67;31.45;;;;;;;1.02;98.42;99106.98;1634328;86;21486;-78
2021/01/14 11:16:25;;;;;;;68.52;32.23;;;;;;;1.05;98.50;99105.35;1635250;86;21276;-79
2021/01/14 11:19:31;;;;;;;68.83;36.85;;;;;;;1.12;98.67;99102.41;1640691;86;21696;-79
2021/01/14 11:22:36;;;;;;;60.80;32.28;;;;;;;1.13;98.67;99093.36;1637836;86;21235;-78
2021/01/14 11:25:42;;;;;;;51.50;26.15;;;;;;;1.17;98.68;99097.44;1635382;86;21325;-79
2021/01/14 11:28:49;;;;;;;65.30;32.90;;;;;;;1.18;98.61;99096.46;1637856;86;21352;-79
2021/01/14 11:31:55;;;;;;;53.25;30.00;;;;;;;1.08;98.29;99098.30;1633521;86;21363;-80
2021/01/14 11:35:01;;;;;;;65.28;31.60;;;;;;;0.98;98.04;99088.06;1639302;86;21326;-80
2021/01/14 11:38:15;;;;;;;63.75;33.73;;;;;;;0.94;98.11;99096.07;1636519;86;21300;-78
2021/01/14 11:41:29;;;;;;;55.98;33.35;;;;;;;0.96;98.29;99107.56;1636059;86;21298;-79
2021/01/14 11:44:34;;;;;;;49.03;28.52;;;;;;;0.99;98.47;99098.70;1654901;84;21133;-79
2021/01/14 11:47:52;;;;;;;55.52;30.05;;;;;;;1.07;98.72;99092.58;1627423;87;21254;-79
2021/01/14 11:50:52;;;;;;;56.35;30.68;;;;;;;1.02;98.60;99102.44;1607287;87;22006;-77
2021/01/14 11:53:59;;;;;;;51.73;28.95;;;;;;;1.02;98.60;99094.86;1648028;85;21236;-78
2021/01/14 11:57:05;;;;;;;53.40;30.08;;;;;;;1.06;98.69;99093.58;1634525;86;21347;-77
2021/01/14 12:00:16;;;;;;;55.45;31.85;;;;;;;1.12;98.83;99088.94;1653255;85;21374;-77
2021/01/14 12:03:22;;;;;;;59.58;34.48;;;;;;;1.19;98.96;99094.11;1613430;87;21370;-77
2021/01/14 12:06:27;;;;;;;56.05;31.82;;;;;;;1.20;98.99;99094.45;1638528;86;21975;-77
2021/01/14 12:09:32;;;;;;;55.85;32.23;;;;;;;1.24;99.03;99111.19;1638504;86;21188;-77
2021/01/14 12:12:38;;;;;;;57.25;30.68;;;;;;;1.21;99.00;99123.09;1652747;85;21339;-77
2021/01/14 12:15:44;;;;;;;48.05;31.40;;;;;;;1.15;98.87;99119.64;1634462;86;21397;-76
2021/01/14 12:18:50;;;;;;;52.38;30.02;;;;;;;1.13;98.82;99124.80;1613675;88;22684;-77
2021/01/14 12:22:10;;;;;;;47.83;28.38;;;;;;;1.14;98.91;99130.06;1636637;86;21378;-76
2021/01/14 12:25:19;;;;;;;61.70;33.95;;;;;;;1.13;98.93;99133.77;1636931;86;21310;-77
2021/01/14 12:28:24;;;;;;;50.90;30.23;;;;;;;1.02;98.76;99132.55;1657112;86;21338;-76
2021/01/14 12:31:30;;;;;;;57.23;32.60;;;;;;;0.96;98.79;99139.87;1642889;86;21295;-76
2021/01/14 12:34:36;;;;;;;58.08;33.98;;;;;;;0.90;98.87;99137.27;1641793;86;21831;-75
2021/01/14 12:37:44;;;;;;;48.28;26.82;;;;;;;0.88;98.97;99138.39;1599849;87;21959;-76
2021/01/14 12:40:51;;;;;;;46.55;28.17;;;;;;;0.79;98.87;99141.44;1593565;89;21376;-77
2021/01/14 12:43:56;;;;;;;60.15;31.85;;;;;;;0.68;98.84;99138.91;1643940;87;21676;-76
2021/01/14 12:47:02;;;;;;;55.20;29.30;;;;;;;0.66;98.99;99151.62;1630695;86;21338;-77
2021/01/14 12:50:07;;;;;;;49.40;29.23;;;;;;;0.59;99.01;99147.83;1618719;86;21193;-76
2021/01/14 12:53:12;;;;;;;59.15;32.65;;;;;;;0.47;99.00;99153.81;1636099;86;21290;-76
2021/01/14 12:56:22;;;;;;;54.88;28.40;;;;;;;0.43;99.11;99157.80;1682545;85;21387;-76
2021/01/14 12:59:28;;;;;;;47.05;26.02;;;;;;;0.46;99.45;99153.47;1666457;85;21229;-77
2021/01/14 13:02:34;;;;;;;60.52;32.45;;;;;;;0.48;99.60;99150.16;1684986;85;21334;-76
2021/01/14 13:05:39;;;;;;;61.13;29.25;;;;;;;0.51;99.79;99157.93;1684005;85;21270;-76
2021/01/14 13:08:46;;;;;;;54.00;30.10;;;;;;;0.51;99.91;99152.55;1679741;85;21307;-77
2021/01/14 13:11:54;;;;;;;49.53;29.23;;;;;;;0.47;99.91;99161.42;1686703;85;21327;-77
2021/01/14 13:15:00;;;;;;;52.75;31.45;;;;;;;0.41;99.89;99165.14;1680878;85;21201;-77
2021/01/14 13:18:05;;;;;;;58.60;30.72;;;;;;;0.31;99.81;99173.20;1683357;85;21686;-76
2021/01/14 13:21:12;;;;;;;61.30;31.02;;;;;;;0.23;99.83;99175.23;1679164;85;21299;-76
2021/01/14 13:24:20;;;;;;;53.42;28.92;;;;;;;0.15;99.82;99172.41;1687379;84;21895;-76
2021/01/14 13:27:26;;;;;;;49.33;28.20;;;;;;;0.10;99.87;99176.00;1686129;85;21609;-77
2021/01/14 13:30:33;;;;;;;58.75;33.25;;;;;;;-0.01;99.82;99177.44;1679114;85;21301;-77
2021/01/14 13:33:38;;;;;;;52.05;29.77;;;;;;;-0.06;99.92;99171.13;1688310;85;21812;-77
2021/01/14 13:36:44;;;;;;;64.87;31.65;;;;;;;-0.08;100.00;99173.61;1659195;85;21319;-77
2021/01/14 13:39:53;;;;;;;55.12;29.20;;;;;;;-0.12;100.00;99176.20;1634911;86;21778;-77
2021/01/14 13:42:59;;;;;;;53.28;29.07;;;;;;;-0.13;100.00;99180.73;1686187;85;21287;-77
2021/01/14 13:46:07;;;;;;;50.38;27.67;;;;;;;-0.08;100.00;99184.36;1685697;85;21258;-77
2021/01/14 13:49:12;;;;;;;56.15;29.25;;;;;;;-0.10;100.00;99182.28;1680132;85;21334;-77
2021/01/14 13:52:18;;;;;;;56.75;32.00;;;;;;;-0.20;100.00;99184.09;1684151;85;21787;-78
2021/01/14 13:55:23;;;;;;;63.58;33.23;;;;;;;-0.28;100.00;99178.91;1688094;85;21909;-76
2021/01/14 13:58:29;;;;;;;66.28;37.15;;;;;;;-0.27;100.00;99183.80;1688038;85;21274;-78
2021/01/14 14:01:37;;;;;;;62.00;34.53;;;;;;;-0.21;100.00;99178.36;1686941;85;21571;-77
2021/01/14 14:04:42;;;;;;;49.35;27.93;;;;;;;-0.23;100.00;99182.55;1684874;85;21318;-77
2021/01/14 14:07:47;;;;;;;60.08;35.58;;;;;;;-0.30;100.00;99181.36;1687101;85;21751;-76
2021/01/14 14:10:52;;;;;;;60.73;35.35;;;;;;;-0.34;100.00;99186.15;1685619;85;21352;-77
2021/01/14 14:14:02;;;;;;;61.28;33.78;;;;;;;-0.34;100.00;99187.49;1687807;85;21236;-77
2021/01/14 14:17:08;;;;;;;64.65;35.88;;;;;;;-0.39;100.00;99185.70;1683371;85;21366;-77
2021/01/14 14:20:14;;;;;;;62.67;33.98;;;;;;;-0.42;100.00;99189.17;1687033;85;21214;-77